Terminal Aerodrome Forecast
Issued by NWS Pocatello, ID

Home | Current Version | Previous Version | Text Only | Print | Product List | Glossary On
Versions: 1 2 3 4 5 6 7 8 9 10 11 12 13 14 15 16 17 18 19
000
FTUS45 KPIH 261309 AAA
TAFBYI
TAF AMD
KBYI 261309Z 2613/2712 22009KT P6SM VCSH SCT080 BKN120
      TEMPO 2613/2614 P6SM -SHRA BKN070
     FM261800 27010KT P6SM -SHRA VCTS OVC080CB
     FM270400 21007KT P6SM BKN120=

USA.gov is the U.S. government's official web portal to all federal, state and local government web resources and services.